sensor_id;sensor_type;location;lat;lon;timestamp;temperature;humidity
37456;DHT22;23316;50.718;7.328;2023-04-19T00:01:41;15.00;48.70
37456;DHT22;23316;50.718;7.328;2023-04-19T00:04:10;15.00;48.70
37456;DHT22;23316;50.718;7.328;2023-04-19T00:06:37;15.00;48.80
37456;DHT22;23316;50.718;7.328;2023-04-19T00:09:05;15.00;48.70
37456;DHT22;23316;50.718;7.328;2023-04-19T00:11:33;15.00;48.80
37456;DHT22;23316;50.718;7.328;2023-04-19T00:14:00;15.00;48.80
37456;DHT22;23316;50.718;7.328;2023-04-19T00:16:27;15.00;48.80
37456;DHT22;23316;50.718;7.328;2023-04-19T00:18:54;15.00;48.80
37456;DHT22;23316;50.718;7.328;2023-04-19T00:21:22;15.00;48.80
37456;DHT22;23316;50.718;7.328;2023-04-19T00:23:50;15.00;48.70
37456;DHT22;23316;50.718;7.328;2023-04-19T00:26:18;15.00;48.70
37456;DHT22;23316;50.718;7.328;2023-04-19T00:28:46;15.00;48.80
37456;DHT22;23316;50.718;7.328;2023-04-19T00:31:13;15.00;48.90
37456;DHT22;23316;50.718;7.328;2023-04-19T00:33:40;14.90;48.90
37456;DHT22;23316;50.718;7.328;2023-04-19T00:36:07;14.90;48.90
37456;DHT22;23316;50.718;7.328;2023-04-19T00:38:36;14.90;48.90
37456;DHT22;23316;50.718;7.328;2023-04-19T00:41:04;14.90;49.00
37456;DHT22;23316;50.718;7.328;2023-04-19T00:43:31;14.90;49.00
37456;DHT22;23316;50.718;7.328;2023-04-19T00:45:58;14.90;49.10
37456;DHT22;23316;50.718;7.328;2023-04-19T00:48:25;14.80;49.10
37456;DHT22;23316;50.718;7.328;2023-04-19T00:50:52;14.90;49.10
37456;DHT22;23316;50.718;7.328;2023-04-19T00:53:20;14.80;49.10
37456;DHT22;23316;50.718;7.328;2023-04-19T00:55:48;14.80;49.20
37456;DHT22;23316;50.718;7.328;2023-04-19T00:58:16;14.80;49.20
37456;DHT22;23316;50.718;7.328;2023-04-19T01:00:43;14.70;49.20
37456;DHT22;23316;50.718;7.328;2023-04-19T01:03:11;14.70;49.30
37456;DHT22;23316;50.718;7.328;2023-04-19T01:05:39;14.70;49.30
37456;DHT22;23316;50.718;7.328;2023-04-19T01:08:06;14.70;49.30
37456;DHT22;23316;50.718;7.328;2023-04-19T01:10:34;14.60;49.40
37456;DHT22;23316;50.718;7.328;2023-04-19T01:13:02;14.60;49.50
37456;DHT22;23316;50.718;7.328;2023-04-19T01:15:29;14.60;49.50
37456;DHT22;23316;50.718;7.328;2023-04-19T01:17:58;14.60;49.60
37456;DHT22;23316;50.718;7.328;2023-04-19T01:20:26;14.60;49.60
37456;DHT22;23316;50.718;7.328;2023-04-19T01:22:55;14.50;49.60
37456;DHT22;23316;50.718;7.328;2023-04-19T01:25:22;14.50;49.70
37456;DHT22;23316;50.718;7.328;2023-04-19T01:27:49;14.60;49.70
37456;DHT22;23316;50.718;7.328;2023-04-19T01:30:16;14.50;49.60
37456;DHT22;23316;50.718;7.328;2023-04-19T01:32:44;14.50;49.70
37456;DHT22;23316;50.718;7.328;2023-04-19T01:35:11;14.50;49.80
37456;DHT22;23316;50.718;7.328;2023-04-19T01:37:38;14.50;49.90
37456;DHT22;23316;50.718;7.328;2023-04-19T01:40:07;14.50;49.90
37456;DHT22;23316;50.718;7.328;2023-04-19T01:42:35;14.50;50.10
37456;DHT22;23316;50.718;7.328;2023-04-19T01:45:02;14.50;50.10
37456;DHT22;23316;50.718;7.328;2023-04-19T01:47:29;14.50;50.10
37456;DHT22;23316;50.718;7.328;2023-04-19T01:49:56;14.50;50.10
37456;DHT22;23316;50.718;7.328;2023-04-19T01:52:24;14.40;50.10
37456;DHT22;23316;50.718;7.328;2023-04-19T01:54:51;14.40;50.10
37456;DHT22;23316;50.718;7.328;2023-04-19T01:57:19;14.40;50.20
37456;DHT22;23316;50.718;7.328;2023-04-19T01:59:46;14.40;50.20
37456;DHT22;23316;50.718;7.328;2023-04-19T02:02:13;14.40;50.30
37456;DHT22;23316;50.718;7.328;2023-04-19T02:04:41;14.40;50.20
37456;DHT22;23316;50.718;7.328;2023-04-19T02:07:09;14.40;50.30
37456;DHT22;23316;50.718;7.328;2023-04-19T02:09:36;14.40;50.40
37456;DHT22;23316;50.718;7.328;2023-04-19T02:12:04;14.40;50.40
37456;DHT22;23316;50.718;7.328;2023-04-19T02:14:34;14.40;50.40
37456;DHT22;23316;50.718;7.328;2023-04-19T02:17:01;14.40;50.50
37456;DHT22;23316;50.718;7.328;2023-04-19T02:19:28;14.30;50.40
37456;DHT22;23316;50.718;7.328;2023-04-19T02:21:55;14.30;50.50
37456;DHT22;23316;50.718;7.328;2023-04-19T02:24:23;14.30;50.50
37456;DHT22;23316;50.718;7.328;2023-04-19T02:26:50;14.30;50.50
37456;DHT22;23316;50.718;7.328;2023-04-19T02:29:17;14.30;50.60
37456;DHT22;23316;50.718;7.328;2023-04-19T02:31:46;14.30;50.60
37456;DHT22;23316;50.718;7.328;2023-04-19T02:34:13;14.30;50.70
37456;DHT22;23316;50.718;7.328;2023-04-19T02:36:40;14.30;50.70
37456;DHT22;23316;50.718;7.328;2023-04-19T02:39:08;14.30;50.70
37456;DHT22;23316;50.718;7.328;2023-04-19T02:41:35;14.30;50.70
37456;DHT22;23316;50.718;7.328;2023-04-19T02:44:03;14.30;50.70
37456;DHT22;23316;50.718;7.328;2023-04-19T02:46:30;14.30;50.70
37456;DHT22;23316;50.718;7.328;2023-04-19T02:49:00;14.30;50.70
37456;DHT22;23316;50.718;7.328;2023-04-19T02:51:28;14.30;50.80
37456;DHT22;23316;50.718;7.328;2023-04-19T02:53:55;14.30;50.70
37456;DHT22;23316;50.718;7.328;2023-04-19T02:56:22;14.30;50.80
37456;DHT22;23316;50.718;7.328;2023-04-19T02:58:52;14.30;50.80
37456;DHT22;23316;50.718;7.328;2023-04-19T03:01:19;14.30;50.90
37456;DHT22;23316;50.718;7.328;2023-04-19T03:03:46;14.30;50.90
37456;DHT22;23316;50.718;7.328;2023-04-19T03:06:15;14.30;50.90
37456;DHT22;23316;50.718;7.328;2023-04-19T03:08:42;14.30;51.00
37456;DHT22;23316;50.718;7.328;2023-04-19T03:11:10;14.30;51.00
37456;DHT22;23316;50.718;7.328;2023-04-19T03:13:37;14.30;51.00
37456;DHT22;23316;50.718;7.328;2023-04-19T03:16:06;14.30;51.00
37456;DHT22;23316;50.718;7.328;2023-04-19T03:18:33;14.30;51.00
37456;DHT22;23316;50.718;7.328;2023-04-19T03:21:01;14.30;51.00
37456;DHT22;23316;50.718;7.328;2023-04-19T03:23:30;14.30;51.10
37456;DHT22;23316;50.718;7.328;2023-04-19T03:25:59;14.30;51.10
37456;DHT22;23316;50.718;7.328;2023-04-19T03:28:26;14.30;51.10
37456;DHT22;23316;50.718;7.328;2023-04-19T03:30:53;14.30;51.20
37456;DHT22;23316;50.718;7.328;2023-04-19T03:33:20;14.30;51.20
37456;DHT22;23316;50.718;7.328;2023-04-19T03:35:48;14.30;51.20
37456;DHT22;23316;50.718;7.328;2023-04-19T03:38:15;14.30;51.20
37456;DHT22;23316;50.718;7.328;2023-04-19T03:40:43;14.20;51.30
37456;DHT22;23316;50.718;7.328;2023-04-19T03:43:12;14.20;51.40
37456;DHT22;23316;50.718;7.328;2023-04-19T03:45:39;14.20;51.50
37456;DHT22;23316;50.718;7.328;2023-04-19T03:48:06;14.30;51.60
37456;DHT22;23316;50.718;7.328;2023-04-19T03:50:33;14.30;51.60
37456;DHT22;23316;50.718;7.328;2023-04-19T03:53:02;14.30;51.70
37456;DHT22;23316;50.718;7.328;2023-04-19T03:55:29;14.30;51.90
37456;DHT22;23316;50.718;7.328;2023-04-19T03:57:58;14.30;51.90
37456;DHT22;23316;50.718;7.328;2023-04-19T04:00:25;14.30;51.90
37456;DHT22;23316;50.718;7.328;2023-04-19T04:02:53;14.30;51.90
37456;DHT22;23316;50.718;7.328;2023-04-19T04:05:20;14.30;51.90
37456;DHT22;23316;50.718;7.328;2023-04-19T04:07:47;14.20;51.80
37456;DHT22;23316;50.718;7.328;2023-04-19T04:10:15;14.30;51.90
37456;DHT22;23316;50.718;7.328;2023-04-19T04:12:42;14.20;51.90
37456;DHT22;23316;50.718;7.328;2023-04-19T04:15:10;14.20;51.90
37456;DHT22;23316;50.718;7.328;2023-04-19T04:17:38;14.20;52.10
37456;DHT22;23316;50.718;7.328;2023-04-19T04:20:06;14.20;52.10
37456;DHT22;23316;50.718;7.328;2023-04-19T04:22:33;14.20;52.10
37456;DHT22;23316;50.718;7.328;2023-04-19T04:25:01;14.20;52.10
37456;DHT22;23316;50.718;7.328;2023-04-19T04:27:28;14.20;52.60
37456;DHT22;23316;50.718;7.328;2023-04-19T04:29:55;14.20;52.20
37456;DHT22;23316;50.718;7.328;2023-04-19T04:32:24;14.20;52.20
37456;DHT22;23316;50.718;7.328;2023-04-19T04:34:51;14.20;52.20
37456;DHT22;23316;50.718;7.328;2023-04-19T04:37:18;14.20;52.20
37456;DHT22;23316;50.718;7.328;2023-04-19T04:39:45;14.20;52.30
37456;DHT22;23316;50.718;7.328;2023-04-19T04:42:12;14.20;52.30
37456;DHT22;23316;50.718;7.328;2023-04-19T04:44:40;14.20;52.50
37456;DHT22;23316;50.718;7.328;2023-04-19T04:47:07;14.20;52.50
37456;DHT22;23316;50.718;7.328;2023-04-19T04:49:35;14.20;52.40
37456;DHT22;23316;50.718;7.328;2023-04-19T04:52:03;14.20;52.50
37456;DHT22;23316;50.718;7.328;2023-04-19T04:54:31;14.20;52.40
37456;DHT22;23316;50.718;7.328;2023-04-19T04:56:58;14.20;52.40
37456;DHT22;23316;50.718;7.328;2023-04-19T04:59:26;14.20;52.40
37456;DHT22;23316;50.718;7.328;2023-04-19T05:01:53;14.20;52.40
37456;DHT22;23316;50.718;7.328;2023-04-19T05:04:20;14.20;52.40
37456;DHT22;23316;50.718;7.328;2023-04-19T05:06:49;14.20;52.40
37456;DHT22;23316;50.718;7.328;2023-04-19T05:09:16;14.20;52.50
37456;DHT22;23316;50.718;7.328;2023-04-19T05:11:43;14.20;52.40
37456;DHT22;23316;50.718;7.328;2023-04-19T05:14:11;14.20;52.60
37456;DHT22;23316;50.718;7.328;2023-04-19T05:16:38;14.20;52.50
37456;DHT22;23316;50.718;7.328;2023-04-19T05:19:06;14.20;52.50
37456;DHT22;23316;50.718;7.328;2023-04-19T05:21:33;14.20;52.50
37456;DHT22;23316;50.718;7.328;2023-04-19T05:24:01;14.20;52.50
37456;DHT22;23316;50.718;7.328;2023-04-19T05:26:29;14.20;52.50
37456;DHT22;23316;50.718;7.328;2023-04-19T05:28:57;14.20;52.50
37456;DHT22;23316;50.718;7.328;2023-04-19T05:31:24;14.20;52.50
37456;DHT22;23316;50.718;7.328;2023-04-19T05:33:51;14.30;52.50
37456;DHT22;23316;50.718;7.328;2023-04-19T05:36:18;14.30;52.60
37456;DHT22;23316;50.718;7.328;2023-04-19T05:38:46;14.30;52.50
37456;DHT22;23316;50.718;7.328;2023-04-19T05:41:14;14.30;52.70
37456;DHT22;23316;50.718;7.328;2023-04-19T05:43:41;14.30;52.60
37456;DHT22;23316;50.718;7.328;2023-04-19T05:46:08;14.30;52.60
37456;DHT22;23316;50.718;7.328;2023-04-19T05:48:36;14.30;52.60
37456;DHT22;23316;50.718;7.328;2023-04-19T05:51:03;14.30;52.60
37456;DHT22;23316;50.718;7.328;2023-04-19T05:53:30;14.30;52.60
37456;DHT22;23316;50.718;7.328;2023-04-19T05:55:57;14.30;52.50
37456;DHT22;23316;50.718;7.328;2023-04-19T05:58:26;14.40;52.60
37456;DHT22;23316;50.718;7.328;2023-04-19T06:00:53;14.40;52.60
37456;DHT22;23316;50.718;7.328;2023-04-19T06:03:20;14.40;52.60
37456;DHT22;23316;50.718;7.328;2023-04-19T06:05:47;14.40;52.50
37456;DHT22;23316;50.718;7.328;2023-04-19T06:08:15;14.40;52.60
37456;DHT22;23316;50.718;7.328;2023-04-19T06:10:42;14.40;52.70
37456;DHT22;23316;50.718;7.328;2023-04-19T06:13:12;14.40;52.70
37456;DHT22;23316;50.718;7.328;2023-04-19T06:15:40;14.40;52.80
37456;DHT22;23316;50.718;7.328;2023-04-19T06:18:07;14.40;52.80
37456;DHT22;23316;50.718;7.328;2023-04-19T06:20:36;14.40;52.80
37456;DHT22;23316;50.718;7.328;2023-04-19T06:23:03;14.40;52.90
37456;DHT22;23316;50.718;7.328;2023-04-19T06:25:31;14.40;52.80
37456;DHT22;23316;50.718;7.328;2023-04-19T06:28:00;14.30;52.80
37456;DHT22;23316;50.718;7.328;2023-04-19T06:30:28;14.40;52.90
37456;DHT22;23316;50.718;7.328;2023-04-19T06:32:56;14.40;52.90
37456;DHT22;23316;50.718;7.328;2023-04-19T06:35:23;14.40;53.00
37456;DHT22;23316;50.718;7.328;2023-04-19T06:37:51;14.30;52.80
37456;DHT22;23316;50.718;7.328;2023-04-19T06:40:18;14.40;52.90
37456;DHT22;23316;50.718;7.328;2023-04-19T06:42:45;14.40;52.90
37456;DHT22;23316;50.718;7.328;2023-04-19T06:45:12;14.40;52.90
37456;DHT22;23316;50.718;7.328;2023-04-19T06:47:41;14.40;52.80
37456;DHT22;23316;50.718;7.328;2023-04-19T06:50:11;14.40;52.80
37456;DHT22;23316;50.718;7.328;2023-04-19T06:52:39;14.50;52.80
37456;DHT22;23316;50.718;7.328;2023-04-19T06:55:06;14.50;52.60
37456;DHT22;23316;50.718;7.328;2023-04-19T06:57:34;14.50;52.50
37456;DHT22;23316;50.718;7.328;2023-04-19T07:00:02;14.60;52.30
37456;DHT22;23316;50.718;7.328;2023-04-19T07:02:31;14.60;52.30
37456;DHT22;23316;50.718;7.328;2023-04-19T07:05:04;14.60;52.20
37456;DHT22;23316;50.718;7.328;2023-04-19T07:07:34;14.60;52.10
37456;DHT22;23316;50.718;7.328;2023-04-19T07:10:03;14.60;52.10
37456;DHT22;23316;50.718;7.328;2023-04-19T07:12:30;14.70;52.10
37456;DHT22;23316;50.718;7.328;2023-04-19T07:14:57;14.70;52.00
37456;DHT22;23316;50.718;7.328;2023-04-19T07:17:25;14.70;52.00
37456;DHT22;23316;50.718;7.328;2023-04-19T07:19:52;14.80;51.40
37456;DHT22;23316;50.718;7.328;2023-04-19T07:22:19;14.80;51.50
37456;DHT22;23316;50.718;7.328;2023-04-19T07:24:48;14.80;51.40
37456;DHT22;23316;50.718;7.328;2023-04-19T07:27:17;14.80;51.50
37456;DHT22;23316;50.718;7.328;2023-04-19T07:29:44;14.80;51.50
37456;DHT22;23316;50.718;7.328;2023-04-19T07:32:12;14.90;51.50
37456;DHT22;23316;50.718;7.328;2023-04-19T07:34:40;14.90;51.40
37456;DHT22;23316;50.718;7.328;2023-04-19T07:37:11;14.90;51.30
37456;DHT22;23316;50.718;7.328;2023-04-19T07:39:38;15.00;51.30
37456;DHT22;23316;50.718;7.328;2023-04-19T07:42:07;15.00;51.20
37456;DHT22;23316;50.718;7.328;2023-04-19T07:44:34;15.00;51.00
37456;DHT22;23316;50.718;7.328;2023-04-19T07:47:02;15.00;50.80
37456;DHT22;23316;50.718;7.328;2023-04-19T07:49:30;15.10;50.90
37456;DHT22;23316;50.718;7.328;2023-04-19T07:51:59;15.10;50.90
37456;DHT22;23316;50.718;7.328;2023-04-19T07:54:27;15.10;50.80
37456;DHT22;23316;50.718;7.328;2023-04-19T07:56:55;15.10;50.50
37456;DHT22;23316;50.718;7.328;2023-04-19T07:59:24;15.10;50.50
37456;DHT22;23316;50.718;7.328;2023-04-19T08:01:51;15.10;50.30
37456;DHT22;23316;50.718;7.328;2023-04-19T08:04:18;15.10;49.80
37456;DHT22;23316;50.718;7.328;2023-04-19T08:06:47;15.10;50.40
37456;DHT22;23316;50.718;7.328;2023-04-19T08:09:17;15.10;50.20
37456;DHT22;23316;50.718;7.328;2023-04-19T08:11:44;15.10;50.40
37456;DHT22;23316;50.718;7.328;2023-04-19T08:14:11;15.10;50.50
37456;DHT22;23316;50.718;7.328;2023-04-19T08:16:40;15.20;50.50
37456;DHT22;23316;50.718;7.328;2023-04-19T08:19:07;15.20;50.40
37456;DHT22;23316;50.718;7.328;2023-04-19T08:21:34;15.20;50.10
37456;DHT22;23316;50.718;7.328;2023-04-19T08:24:03;15.20;49.60
37456;DHT22;23316;50.718;7.328;2023-04-19T08:26:31;15.20;49.60
37456;DHT22;23316;50.718;7.328;2023-04-19T08:28:58;15.20;49.80
37456;DHT22;23316;50.718;7.328;2023-04-19T08:31:25;15.30;50.00
37456;DHT22;23316;50.718;7.328;2023-04-19T08:33:54;15.30;49.60
37456;DHT22;23316;50.718;7.328;2023-04-19T08:36:21;15.30;49.90
37456;DHT22;23316;50.718;7.328;2023-04-19T08:38:49;15.40;49.40
37456;DHT22;23316;50.718;7.328;2023-04-19T08:41:17;15.40;49.20
37456;DHT22;23316;50.718;7.328;2023-04-19T08:43:46;15.50;49.10
37456;DHT22;23316;50.718;7.328;2023-04-19T08:46:14;15.50;48.60
37456;DHT22;23316;50.718;7.328;2023-04-19T08:48:43;15.50;48.70
37456;DHT22;23316;50.718;7.328;2023-04-19T08:51:13;15.60;48.40
37456;DHT22;23316;50.718;7.328;2023-04-19T08:53:43;15.60;48.80
37456;DHT22;23316;50.718;7.328;2023-04-19T08:56:11;15.60;49.00
37456;DHT22;23316;50.718;7.328;2023-04-19T08:58:38;15.70;49.20
37456;DHT22;23316;50.718;7.328;2023-04-19T09:01:08;15.70;48.60
37456;DHT22;23316;50.718;7.328;2023-04-19T09:03:42;15.80;48.80
37456;DHT22;23316;50.718;7.328;2023-04-19T09:06:13;15.90;49.00
37456;DHT22;23316;50.718;7.328;2023-04-19T09:08:40;15.90;47.70
37456;DHT22;23316;50.718;7.328;2023-04-19T09:11:08;16.00;47.70
37456;DHT22;23316;50.718;7.328;2023-04-19T09:13:36;15.90;46.40
37456;DHT22;23316;50.718;7.328;2023-04-19T09:16:03;15.90;45.70
37456;DHT22;23316;50.718;7.328;2023-04-19T09:18:32;15.90;46.00
37456;DHT22;23316;50.718;7.328;2023-04-19T09:21:00;15.90;45.60
37456;DHT22;23316;50.718;7.328;2023-04-19T09:23:28;15.90;45.50
37456;DHT22;23316;50.718;7.328;2023-04-19T09:26:00;15.90;46.30
37456;DHT22;23316;50.718;7.328;2023-04-19T09:28:29;15.90;46.00
37456;DHT22;23316;50.718;7.328;2023-04-19T09:30:57;15.90;46.30
37456;DHT22;23316;50.718;7.328;2023-04-19T09:33:31;16.00;46.60
37456;DHT22;23316;50.718;7.328;2023-04-19T09:35:59;16.00;46.50
37456;DHT22;23316;50.718;7.328;2023-04-19T09:38:44;16.00;46.60
37456;DHT22;23316;50.718;7.328;2023-04-19T09:41:12;16.10;46.10
37456;DHT22;23316;50.718;7.328;2023-04-19T09:43:39;16.00;46.00
37456;DHT22;23316;50.718;7.328;2023-04-19T09:46:07;16.10;46.10
37456;DHT22;23316;50.718;7.328;2023-04-19T09:48:34;16.10;46.50
37456;DHT22;23316;50.718;7.328;2023-04-19T09:51:02;16.10;46.20
37456;DHT22;23316;50.718;7.328;2023-04-19T09:53:31;16.10;46.90
37456;DHT22;23316;50.718;7.328;2023-04-19T09:56:00;16.20;46.70
37456;DHT22;23316;50.718;7.328;2023-04-19T09:58:27;16.20;46.60
37456;DHT22;23316;50.718;7.328;2023-04-19T10:00:55;16.30;46.40
37456;DHT22;23316;50.718;7.328;2023-04-19T10:03:26;16.40;46.50
37456;DHT22;23316;50.718;7.328;2023-04-19T10:05:55;16.40;46.40
37456;DHT22;23316;50.718;7.328;2023-04-19T10:08:24;16.50;46.40
37456;DHT22;23316;50.718;7.328;2023-04-19T10:10:54;16.60;46.30
37456;DHT22;23316;50.718;7.328;2023-04-19T10:13:22;16.60;45.30
37456;DHT22;23316;50.718;7.328;2023-04-19T10:15:50;16.60;45.50
37456;DHT22;23316;50.718;7.328;2023-04-19T10:18:17;16.70;45.30
37456;DHT22;23316;50.718;7.328;2023-04-19T10:20:49;16.70;45.10
37456;DHT22;23316;50.718;7.328;2023-04-19T10:23:18;16.80;44.80
37456;DHT22;23316;50.718;7.328;2023-04-19T10:25:47;16.80;44.30
37456;DHT22;23316;50.718;7.328;2023-04-19T10:28:15;16.80;44.80
37456;DHT22;23316;50.718;7.328;2023-04-19T10:30:52;16.90;44.20
37456;DHT22;23316;50.718;7.328;2023-04-19T10:33:24;16.90;43.40
37456;DHT22;23316;50.718;7.328;2023-04-19T10:35:55;16.90;43.70
37456;DHT22;23316;50.718;7.328;2023-04-19T10:38:37;16.90;43.50
37456;DHT22;23316;50.718;7.328;2023-04-19T10:41:05;16.90;42.80
37456;DHT22;23316;50.718;7.328;2023-04-19T10:43:42;16.90;43.00
37456;DHT22;23316;50.718;7.328;2023-04-19T10:46:15;17.00;43.30
37456;DHT22;23316;50.718;7.328;2023-04-19T10:48:50;17.00;42.60
37456;DHT22;23316;50.718;7.328;2023-04-19T10:51:22;17.00;40.30
37456;DHT22;23316;50.718;7.328;2023-04-19T10:53:54;16.90;41.40
37456;DHT22;23316;50.718;7.328;2023-04-19T10:56:59;17.00;41.80
37456;DHT22;23316;50.718;7.328;2023-04-19T10:59:30;17.00;41.90
37456;DHT22;23316;50.718;7.328;2023-04-19T11:01:59;17.00;42.50
37456;DHT22;23316;50.718;7.328;2023-04-19T11:04:58;17.00;42.40
37456;DHT22;23316;50.718;7.328;2023-04-19T11:07:26;17.00;42.40
37456;DHT22;23316;50.718;7.328;2023-04-19T11:09:54;17.10;42.60
37456;DHT22;23316;50.718;7.328;2023-04-19T11:12:21;17.10;42.40
37456;DHT22;23316;50.718;7.328;2023-04-19T11:14:52;17.10;42.30
37456;DHT22;23316;50.718;7.328;2023-04-19T11:17:21;17.10;41.70
37456;DHT22;23316;50.718;7.328;2023-04-19T11:19:55;17.20;40.90
37456;DHT22;23316;50.718;7.328;2023-04-19T11:22:31;17.20;40.20
37456;DHT22;23316;50.718;7.328;2023-04-19T11:25:06;17.20;39.50
37456;DHT22;23316;50.718;7.328;2023-04-19T11:27:34;17.20;38.70
37456;DHT22;23316;50.718;7.328;2023-04-19T11:30:05;17.20;39.70
37456;DHT22;23316;50.718;7.328;2023-04-19T11:32:34;17.20;39.70
37456;DHT22;23316;50.718;7.328;2023-04-19T11:35:05;17.30;40.00
37456;DHT22;23316;50.718;7.328;2023-04-19T11:37:33;17.30;40.10
37456;DHT22;23316;50.718;7.328;2023-04-19T11:40:01;17.30;39.80
37456;DHT22;23316;50.718;7.328;2023-04-19T11:42:29;17.30;39.90
37456;DHT22;23316;50.718;7.328;2023-04-19T11:44:57;17.30;39.80
37456;DHT22;23316;50.718;7.328;2023-04-19T11:47:26;17.30;39.90
37456;DHT22;23316;50.718;7.328;2023-04-19T11:49:56;17.40;39.70
37456;DHT22;23316;50.718;7.328;2023-04-19T11:52:24;17.40;40.20
37456;DHT22;23316;50.718;7.328;2023-04-19T11:54:52;17.40;37.90
37456;DHT22;23316;50.718;7.328;2023-04-19T11:57:26;17.40;38.00
37456;DHT22;23316;50.718;7.328;2023-04-19T12:00:07;17.50;38.90
37456;DHT22;23316;50.718;7.328;2023-04-19T12:02:39;17.50;39.20
37456;DHT22;23316;50.718;7.328;2023-04-19T12:05:08;17.50;39.80
37456;DHT22;23316;50.718;7.328;2023-04-19T12:07:36;17.60;39.10
37456;DHT22;23316;50.718;7.328;2023-04-19T12:10:10;17.60;39.20
37456;DHT22;23316;50.718;7.328;2023-04-19T12:12:37;17.60;38.70
37456;DHT22;23316;50.718;7.328;2023-04-19T12:15:09;17.60;37.10
37456;DHT22;23316;50.718;7.328;2023-04-19T12:17:56;17.50;37.70
37456;DHT22;23316;50.718;7.328;2023-04-19T12:20:30;17.50;38.60
37456;DHT22;23316;50.718;7.328;2023-04-19T12:22:58;17.50;39.00
37456;DHT22;23316;50.718;7.328;2023-04-19T12:25:29;17.50;36.90
37456;DHT22;23316;50.718;7.328;2023-04-19T12:27:56;17.50;37.70
37456;DHT22;23316;50.718;7.328;2023-04-19T12:30:24;17.50;37.30
37456;DHT22;23316;50.718;7.328;2023-04-19T12:32:51;17.40;33.90
37456;DHT22;23316;50.718;7.328;2023-04-19T12:35:22;17.40;36.00
37456;DHT22;23316;50.718;7.328;2023-04-19T12:37:51;17.40;34.20
37456;DHT22;23316;50.718;7.328;2023-04-19T12:40:19;17.30;34.60
37456;DHT22;23316;50.718;7.328;2023-04-19T12:42:47;17.30;35.00
37456;DHT22;23316;50.718;7.328;2023-04-19T12:45:15;17.30;33.80
37456;DHT22;23316;50.718;7.328;2023-04-19T12:47:42;17.30;34.60
37456;DHT22;23316;50.718;7.328;2023-04-19T12:50:11;17.30;35.10
37456;DHT22;23316;50.718;7.328;2023-04-19T12:52:41;17.30;35.30
37456;DHT22;23316;50.718;7.328;2023-04-19T12:55:08;17.30;32.70
37456;DHT22;23316;50.718;7.328;2023-04-19T12:57:36;17.30;32.90
37456;DHT22;23316;50.718;7.328;2023-04-19T13:00:04;17.30;31.80
37456;DHT22;23316;50.718;7.328;2023-04-19T13:02:34;17.30;33.60
37456;DHT22;23316;50.718;7.328;2023-04-19T13:05:02;17.30;33.10
37456;DHT22;23316;50.718;7.328;2023-04-19T13:07:30;17.30;31.30
37456;DHT22;23316;50.718;7.328;2023-04-19T13:09:59;17.30;32.70
37456;DHT22;23316;50.718;7.328;2023-04-19T13:12:27;17.30;32.70
37456;DHT22;23316;50.718;7.328;2023-04-19T13:14:54;17.20;30.30
37456;DHT22;23316;50.718;7.328;2023-04-19T13:17:21;17.30;31.80
37456;DHT22;23316;50.718;7.328;2023-04-19T13:19:49;17.30;32.20
37456;DHT22;23316;50.718;7.328;2023-04-19T13:22:16;17.30;32.60
37456;DHT22;23316;50.718;7.328;2023-04-19T13:24:43;17.30;33.00
37456;DHT22;23316;50.718;7.328;2023-04-19T13:27:12;17.30;32.30
37456;DHT22;23316;50.718;7.328;2023-04-19T13:29:39;17.30;30.10
37456;DHT22;23316;50.718;7.328;2023-04-19T13:32:06;17.30;29.70
37456;DHT22;23316;50.718;7.328;2023-04-19T13:34:37;17.30;30.90
37456;DHT22;23316;50.718;7.328;2023-04-19T13:37:05;17.40;29.80
37456;DHT22;23316;50.718;7.328;2023-04-19T13:39:33;17.40;31.30
37456;DHT22;23316;50.718;7.328;2023-04-19T13:42:00;17.40;31.40
37456;DHT22;23316;50.718;7.328;2023-04-19T13:44:29;17.40;30.10
37456;DHT22;23316;50.718;7.328;2023-04-19T13:46:56;17.40;29.60
37456;DHT22;23316;50.718;7.328;2023-04-19T13:49:24;17.40;30.30
37456;DHT22;23316;50.718;7.328;2023-04-19T13:51:51;17.40;28.70
37456;DHT22;23316;50.718;7.328;2023-04-19T13:54:18;17.40;29.60
37456;DHT22;23316;50.718;7.328;2023-04-19T13:56:46;17.40;29.60
37456;DHT22;23316;50.718;7.328;2023-04-19T13:59:13;17.30;29.00
37456;DHT22;23316;50.718;7.328;2023-04-19T14:01:42;17.30;28.90
37456;DHT22;23316;50.718;7.328;2023-04-19T14:04:09;17.40;29.20
37456;DHT22;23316;50.718;7.328;2023-04-19T14:06:36;17.30;28.00
37456;DHT22;23316;50.718;7.328;2023-04-19T14:09:03;17.30;28.10
37456;DHT22;23316;50.718;7.328;2023-04-19T14:11:31;17.30;29.40
37456;DHT22;23316;50.718;7.328;2023-04-19T14:13:59;17.30;28.60
37456;DHT22;23316;50.718;7.328;2023-04-19T14:16:26;17.30;29.60
37456;DHT22;23316;50.718;7.328;2023-04-19T14:18:54;17.30;29.70
37456;DHT22;23316;50.718;7.328;2023-04-19T14:21:22;17.40;29.90
37456;DHT22;23316;50.718;7.328;2023-04-19T14:23:49;17.30;27.80
37456;DHT22;23316;50.718;7.328;2023-04-19T14:26:16;17.40;28.20
37456;DHT22;23316;50.718;7.328;2023-04-19T14:28:43;17.30;29.20
37456;DHT22;23316;50.718;7.328;2023-04-19T14:31:11;17.40;29.30
37456;DHT22;23316;50.718;7.328;2023-04-19T14:33:38;17.40;28.90
37456;DHT22;23316;50.718;7.328;2023-04-19T14:36:07;17.40;29.10
37456;DHT22;23316;50.718;7.328;2023-04-19T14:38:34;17.40;27.50
37456;DHT22;23316;50.718;7.328;2023-04-19T14:41:01;17.40;28.30
37456;DHT22;23316;50.718;7.328;2023-04-19T14:43:29;17.40;29.00
37456;DHT22;23316;50.718;7.328;2023-04-19T14:45:56;17.40;28.50
37456;DHT22;23316;50.718;7.328;2023-04-19T14:48:23;17.40;29.00
37456;DHT22;23316;50.718;7.328;2023-04-19T14:50:51;17.30;28.30
37456;DHT22;23316;50.718;7.328;2023-04-19T14:53:19;17.40;27.50
37456;DHT22;23316;50.718;7.328;2023-04-19T14:55:47;17.40;28.60
37456;DHT22;23316;50.718;7.328;2023-04-19T14:58:14;17.30;28.90
37456;DHT22;23316;50.718;7.328;2023-04-19T15:00:41;17.30;28.00
37456;DHT22;23316;50.718;7.328;2023-04-19T15:03:08;17.40;29.00
37456;DHT22;23316;50.718;7.328;2023-04-19T15:05:36;17.40;28.70
37456;DHT22;23316;50.718;7.328;2023-04-19T15:08:03;17.30;28.60
37456;DHT22;23316;50.718;7.328;2023-04-19T15:10:32;17.30;27.50
37456;DHT22;23316;50.718;7.328;2023-04-19T15:13:00;17.30;27.70
37456;DHT22;23316;50.718;7.328;2023-04-19T15:15:27;17.30;28.30
37456;DHT22;23316;50.718;7.328;2023-04-19T15:17:54;17.30;28.40
37456;DHT22;23316;50.718;7.328;2023-04-19T15:20:21;17.20;28.80
37456;DHT22;23316;50.718;7.328;2023-04-19T15:22:49;17.20;29.10
37456;DHT22;23316;50.718;7.328;2023-04-19T15:25:16;17.20;28.90
37456;DHT22;23316;50.718;7.328;2023-04-19T15:27:44;17.20;27.00
37456;DHT22;23316;50.718;7.328;2023-04-19T15:33:06;17.10;26.40
37456;DHT22;23316;50.718;7.328;2023-04-19T15:35:38;17.10;27.50
37456;DHT22;23316;50.718;7.328;2023-04-19T15:38:09;17.10;28.00
37456;DHT22;23316;50.718;7.328;2023-04-19T15:40:41;17.10;28.60